createdAt,value
2017-08-02T14:18:17.582Z,36.30
2017-08-02T14:20:46.035Z,37.00
2017-08-02T14:23:14.347Z,36.90
2017-08-02T14:25:42.674Z,37.00
2017-08-02T14:28:13.535Z,36.70
2017-08-02T14:30:43.208Z,36.20
2017-08-02T14:33:11.512Z,36.60
2017-08-02T14:35:40.579Z,37.50
2017-08-02T14:38:08.939Z,37.50
2017-08-02T14:40:37.237Z,37.50
2017-08-02T14:43:05.587Z,37.00
2017-08-02T14:45:33.885Z,37.00
2017-08-02T14:48:02.209Z,36.80
2017-08-02T14:50:30.543Z,37.30
2017-08-02T14:52:59.648Z,36.40
2017-08-02T14:55:28.002Z,36.40
2017-08-02T14:57:56.310Z,37.10
2017-08-02T15:00:24.624Z,36.20
2017-08-02T15:02:52.974Z,37.70
2017-08-02T15:05:22.254Z,36.10
2017-08-02T15:07:50.809Z,35.90
2017-08-02T15:10:19.317Z,37.10
2017-08-02T15:12:47.658Z,36.20
2017-08-02T15:15:15.974Z,36.20
2017-08-02T15:17:44.260Z,36.10
2017-08-02T15:20:12.616Z,35.90
2017-08-02T15:22:40.910Z,34.60
2017-08-02T15:25:09.201Z,34.50
2017-08-02T15:27:37.780Z,34.90
2017-08-02T15:30:06.110Z,34.90
2017-08-02T15:32:34.564Z,35.10
2017-08-02T15:35:02.891Z,34.90
2017-08-02T15:37:31.269Z,35.60
2017-08-02T15:39:59.610Z,34.10
2017-08-02T15:42:27.908Z,34.60
2017-08-02T15:44:56.208Z,34.30
2017-08-02T15:47:24.536Z,34.40
2017-08-02T15:49:52.864Z,34.80
2017-08-02T15:52:21.217Z,35.60
2017-08-02T15:54:49.508Z,34.80
2017-08-02T15:57:17.806Z,34.30
2017-08-02T15:59:46.154Z,34.10
2017-08-02T16:02:14.445Z,34.60
2017-08-02T16:04:42.781Z,33.50
2017-08-02T16:07:11.065Z,33.90
2017-08-02T16:09:39.377Z,35.00
2017-08-02T16:12:07.692Z,34.60
2017-08-02T16:14:36.026Z,34.50
2017-08-02T16:17:04.337Z,35.70
2017-08-02T16:19:32.672Z,35.40
2017-08-02T16:22:00.971Z,36.00
2017-08-02T16:24:29.304Z,36.40
2017-08-02T16:26:57.613Z,36.50
2017-08-02T16:29:25.913Z,36.60
2017-08-02T16:31:54.232Z,35.50
2017-08-02T16:34:22.880Z,36.10
2017-08-02T16:36:51.990Z,36.10
2017-08-02T16:39:20.288Z,36.10
2017-08-02T16:41:48.616Z,35.80
2017-08-02T16:44:16.962Z,35.60
2017-08-02T16:46:45.265Z,35.70
2017-08-02T16:49:13.556Z,36.30
2017-08-02T16:51:41.871Z,36.00
2017-08-02T16:54:10.173Z,37.00
2017-08-02T16:56:38.511Z,37.70
2017-08-02T16:59:06.855Z,36.50
2017-08-02T17:01:35.213Z,36.70
2017-08-02T17:04:03.617Z,36.40
2017-08-02T17:06:32.670Z,36.40
2017-08-02T17:09:00.959Z,36.50
2017-08-02T17:11:30.053Z,37.00
2017-08-02T17:13:58.397Z,37.00
2017-08-02T17:16:26.684Z,37.30
2017-08-02T17:18:54.973Z,37.40
2017-08-02T17:21:23.330Z,37.80
2017-08-02T17:23:52.393Z,37.40
2017-08-02T17:26:20.704Z,37.40
2017-08-02T17:28:49.034Z,38.00
2017-08-02T17:31:17.345Z,38.20
2017-08-02T17:33:45.642Z,38.40
2017-08-02T17:36:14.001Z,38.50
2017-08-02T17:38:43.103Z,39.50
2017-08-02T17:41:11.402Z,39.50
2017-08-02T17:43:39.698Z,39.90
2017-08-02T17:46:08.646Z,40.00
2017-08-02T17:48:36.937Z,39.10
2017-08-02T17:51:05.231Z,39.40
2017-08-02T17:53:33.577Z,39.10
2017-08-02T17:56:01.898Z,39.40
2017-08-02T17:58:30.236Z,39.60
2017-08-02T18:00:59.298Z,39.30
2017-08-02T18:03:27.762Z,39.30
2017-08-02T18:05:56.822Z,39.70
2017-08-02T18:08:25.138Z,39.70
2017-08-02T18:10:53.494Z,40.50
2017-08-02T18:13:21.794Z,41.10
2017-08-02T18:15:50.879Z,40.70
2017-08-02T18:18:19.160Z,40.70
2017-08-02T18:20:47.501Z,41.60
2017-08-02T18:23:15.818Z,42.50
2017-08-02T18:25:44.908Z,40.10
2017-08-02T18:28:13.233Z,40.00
2017-08-02T18:30:41.519Z,41.80
2017-08-02T18:33:15.866Z,44.70
2017-08-02T18:35:44.164Z,46.10
2017-08-02T18:38:12.485Z,45.60
2017-08-02T18:40:40.798Z,46.10
2017-08-02T18:43:09.089Z,47.30
2017-08-02T18:45:37.414Z,47.60
2017-08-02T18:48:05.723Z,48.20
2017-08-02T18:50:34.021Z,49.00
2017-08-02T18:53:02.348Z,49.50
2017-08-02T18:55:30.661Z,50.80
2017-08-02T18:57:58.969Z,49.50
2017-08-02T19:00:27.256Z,48.70
2017-08-02T19:02:55.588Z,50.00
2017-08-02T19:05:23.967Z,50.50
2017-08-02T19:07:52.295Z,50.90
2017-08-02T19:10:20.586Z,51.50
2017-08-02T19:12:48.902Z,51.90
2017-08-02T19:15:17.211Z,51.50
2017-08-02T19:17:45.507Z,52.00
2017-08-02T19:20:13.837Z,52.40
2017-08-02T19:22:42.888Z,53.00
2017-08-02T19:25:11.219Z,52.60
2017-08-02T19:27:39.529Z,52.90
2017-08-02T19:30:07.827Z,53.20
2017-08-02T19:32:36.142Z,53.50
2017-08-02T19:35:04.440Z,54.50
2017-08-02T19:37:32.758Z,55.10
2017-08-02T19:40:01.085Z,56.20
2017-08-02T19:42:30.167Z,56.20
2017-08-02T19:44:58.502Z,56.10
2017-08-02T19:47:27.562Z,57.20
2017-08-02T19:49:55.918Z,56.60
2017-08-02T19:52:24.213Z,56.60
2017-08-02T19:54:52.505Z,57.00
2017-08-02T19:57:20.829Z,57.40
2017-08-02T19:59:49.120Z,57.60
2017-08-02T20:02:17.445Z,58.50
2017-08-02T20:04:45.773Z,58.70
2017-08-02T20:07:14.858Z,59.40
2017-08-02T20:09:43.155Z,59.40
2017-08-02T20:12:11.453Z,59.30
2017-08-02T20:14:39.770Z,59.50
2017-08-02T20:17:08.084Z,59.80
2017-08-02T20:19:36.381Z,59.70
2017-08-02T20:22:04.700Z,59.20
2017-08-02T20:24:32.988Z,59.40
2017-08-02T20:27:01.327Z,60.70
2017-08-02T20:29:29.756Z,60.60
2017-08-02T20:31:58.052Z,60.80
2017-08-02T20:34:26.341Z,61.30
2017-08-02T20:36:54.666Z,61.70
2017-08-02T20:39:22.960Z,61.70
2017-08-02T20:41:51.284Z,61.20
2017-08-02T20:44:19.594Z,61.40
2017-08-02T20:46:47.928Z,61.50
2017-08-02T20:49:16.988Z,62.80
2017-08-02T20:51:45.324Z,61.90
2017-08-02T20:54:13.646Z,62.10
2017-08-02T20:56:41.937Z,62.60
2017-08-02T20:59:10.233Z,63.10
2017-08-02T21:01:38.573Z,63.10
2017-08-02T21:04:07.632Z,64.20
2017-08-02T21:06:36.164Z,64.10
2017-08-02T21:09:05.357Z,64.50
2017-08-02T21:11:33.699Z,64.20
2017-08-02T21:14:01.995Z,65.10
2017-08-02T21:16:30.285Z,65.10
2017-08-02T21:18:58.613Z,65.20
2017-08-02T21:21:26.913Z,65.70
2017-08-02T21:23:55.204Z,65.30
2017-08-02T21:26:23.518Z,65.50
2017-08-02T21:28:51.846Z,65.20
2017-08-02T21:31:20.947Z,65.70
2017-08-02T21:33:50.044Z,66.00
2017-08-02T21:36:18.387Z,65.90
2017-08-02T21:38:47.456Z,66.00
2017-08-02T21:41:15.762Z,66.00
2017-08-02T21:43:44.114Z,66.80
2017-08-02T21:46:13.164Z,67.20
2017-08-02T21:48:41.479Z,67.10
2017-08-02T21:51:09.976Z,67.00
2017-08-02T21:53:38.269Z,67.60
2017-08-02T21:56:07.357Z,67.70
2017-08-02T21:58:35.657Z,67.60
2017-08-02T22:01:04.256Z,68.00
2017-08-02T22:03:33.346Z,69.90
2017-08-02T22:06:01.638Z,69.90
2017-08-02T22:08:29.959Z,69.80
2017-08-02T22:10:58.246Z,69.40
2017-08-02T22:13:26.576Z,69.50
2017-08-02T22:15:54.868Z,69.60
2017-08-02T22:18:23.210Z,69.60
2017-08-02T22:20:51.525Z,70.70
2017-08-02T22:23:20.604Z,69.60
2017-08-02T22:25:48.894Z,69.50
2017-08-02T22:28:17.214Z,69.50
2017-08-02T22:30:45.509Z,70.00
2017-08-02T22:33:13.828Z,70.00
2017-08-02T22:35:42.117Z,69.10
2017-08-02T22:38:10.417Z,68.60
2017-08-02T22:40:38.733Z,68.30
2017-08-02T22:43:07.021Z,68.60
2017-08-02T22:45:35.349Z,68.10
2017-08-02T22:48:03.649Z,67.40
2017-08-02T22:50:31.980Z,67.80
2017-08-02T22:53:00.278Z,67.70
2017-08-02T22:55:28.591Z,67.90
2017-08-02T22:57:56.877Z,68.70
2017-08-02T23:00:25.170Z,68.60
2017-08-02T23:02:53.497Z,69.20
2017-08-02T23:05:21.785Z,70.20
2017-08-02T23:07:50.121Z,69.80
2017-08-02T23:10:19.222Z,69.00
2017-08-02T23:12:47.521Z,69.00
2017-08-02T23:15:15.822Z,69.50
2017-08-02T23:17:44.145Z,69.70
2017-08-02T23:20:12.443Z,70.90
2017-08-02T23:22:40.758Z,70.80
2017-08-02T23:25:09.090Z,70.80
2017-08-02T23:27:37.420Z,71.00
2017-08-02T23:30:05.709Z,71.20
2017-08-02T23:32:34.011Z,71.30
2017-08-02T23:35:02.324Z,71.40
2017-08-02T23:37:30.608Z,71.30
2017-08-02T23:39:58.937Z,71.30
2017-08-02T23:42:27.228Z,71.00
2017-08-02T23:44:55.519Z,70.90
2017-08-02T23:47:23.844Z,71.00
2017-08-02T23:49:52.145Z,71.50
2017-08-02T23:52:20.437Z,71.70
2017-08-02T23:54:48.871Z,71.80
2017-08-02T23:57:17.160Z,72.20
2017-08-02T23:59:45.475Z,72.60
